createdAt,value
2018-10-06T00:03:42.454Z,8.80
2018-10-06T00:08:46.234Z,9.10
2018-10-06T00:13:49.798Z,11.37
2018-10-06T00:18:53.617Z,9.87
2018-10-06T00:23:59.034Z,8.30
2018-10-06T00:29:02.740Z,11.67
2018-10-06T00:34:06.258Z,7.40
2018-10-06T00:39:10.081Z,11.20
2018-10-06T00:44:13.955Z,11.73
2018-10-06T00:49:17.622Z,8.33
2018-10-06T00:54:21.461Z,12.20
2018-10-06T00:59:24.973Z,7.77
2018-10-06T01:04:28.527Z,10.07
2018-10-06T01:09:32.160Z,9.90
2018-10-06T01:14:35.759Z,13.13
2018-10-06T01:19:39.428Z,9.83
2018-10-06T01:24:43.044Z,9.87
2018-10-06T01:29:46.633Z,12.07
2018-10-06T01:34:50.251Z,10.63
2018-10-06T01:39:53.825Z,11.13
2018-10-06T01:44:57.386Z,11.37
2018-10-06T01:50:01.107Z,16.40
2018-10-06T01:55:04.807Z,11.33
2018-10-06T02:00:08.917Z,11.70
2018-10-06T02:05:12.892Z,10.83
2018-10-06T02:10:16.481Z,14.73
2018-10-06T02:15:20.178Z,12.53
2018-10-06T02:20:23.869Z,11.93
2018-10-06T02:25:27.975Z,15.40
2018-10-06T02:30:33.961Z,18.77
2018-10-06T02:35:37.724Z,15.47
2018-10-06T02:40:41.335Z,15.37
2018-10-06T02:45:44.883Z,13.77
2018-10-06T02:50:48.944Z,12.53
2018-10-06T02:55:52.555Z,12.37
2018-10-06T03:00:56.132Z,12.37
2018-10-06T03:05:59.674Z,12.53
2018-10-06T03:11:03.355Z,12.70
2018-10-06T03:16:07.133Z,15.53
2018-10-06T03:21:10.621Z,13.87
2018-10-06T03:26:14.291Z,16.07
2018-10-06T03:31:17.918Z,13.07
2018-10-06T03:36:21.478Z,14.93
2018-10-06T03:41:25.229Z,20.23
2018-10-06T03:46:28.809Z,17.83
2018-10-06T03:51:32.570Z,17.73
2018-10-06T03:56:36.170Z,15.60
2018-10-06T04:01:49.200Z,18.27
2018-10-06T04:06:52.762Z,17.13
2018-10-06T04:11:56.694Z,17.33
2018-10-06T04:17:00.278Z,17.50
2018-10-06T04:22:03.898Z,19.80
2018-10-06T04:27:07.648Z,18.90
2018-10-06T04:32:11.322Z,18.83
2018-10-06T04:37:14.897Z,18.87
2018-10-06T04:42:18.516Z,18.37
2018-10-06T04:47:22.063Z,18.10
2018-10-06T04:52:25.624Z,19.60
2018-10-06T04:57:29.152Z,22.10
2018-10-06T05:02:32.829Z,20.97
2018-10-06T05:07:36.466Z,16.60
2018-10-06T05:12:40.157Z,17.10
2018-10-06T05:17:43.777Z,16.77
2018-10-06T05:22:47.468Z,18.00
2018-10-06T05:27:51.188Z,17.77
2018-10-06T05:32:54.908Z,24.80
2018-10-06T05:37:58.628Z,23.90
2018-10-06T05:43:02.245Z,23.80
2018-10-06T05:48:06.444Z,26.60
2018-10-06T05:53:10.016Z,28.10
2018-10-06T05:58:13.706Z,21.70
2018-10-06T06:03:17.265Z,22.53
2018-10-06T06:08:20.947Z,23.80
2018-10-06T06:13:24.989Z,24.50
2018-10-06T06:18:28.522Z,22.87
2018-10-06T06:23:32.291Z,33.50
2018-10-06T06:28:35.890Z,32.50
2018-10-06T06:33:39.454Z,31.97
2018-10-06T06:38:43.346Z,37.73
2018-10-06T06:43:47.089Z,29.10
2018-10-06T06:48:50.730Z,33.73
2018-10-06T06:53:54.458Z,32.63
2018-10-06T06:58:58.014Z,32.77
2018-10-06T07:04:01.852Z,23.18
2018-10-06T07:09:08.364Z,27.87
2018-10-06T07:14:12.068Z,21.47
2018-10-06T07:19:15.707Z,28.03
2018-10-06T07:24:19.514Z,23.93
2018-10-06T07:29:23.123Z,24.40
2018-10-06T07:34:33.063Z,22.13
2018-10-06T07:39:36.692Z,19.33
2018-10-06T07:44:40.346Z,19.83
2018-10-06T07:49:43.970Z,20.17
2018-10-06T07:54:47.797Z,17.83
2018-10-06T07:59:51.633Z,20.80
2018-10-06T08:04:55.336Z,17.00
2018-10-06T08:09:58.926Z,19.87
2018-10-06T08:15:02.471Z,20.07
2018-10-06T08:20:06.276Z,19.93
2018-10-06T08:25:09.907Z,15.43
2018-10-06T08:30:17.206Z,15.67
2018-10-06T08:35:20.835Z,15.40
2018-10-06T08:40:24.452Z,18.10
2018-10-06T08:45:28.284Z,13.67
2018-10-06T08:50:32.208Z,13.60
2018-10-06T08:55:35.966Z,12.00
2018-10-06T09:00:39.704Z,12.67
2018-10-06T09:05:43.509Z,13.13
2018-10-06T09:10:47.135Z,11.73
2018-10-06T09:15:52.663Z,12.47
2018-10-06T09:20:56.369Z,9.23
2018-10-06T09:26:01.889Z,8.73
2018-10-06T09:31:05.609Z,8.90
2018-10-06T09:36:09.155Z,10.53
2018-10-06T09:41:12.761Z,9.27
2018-10-06T09:46:16.397Z,12.27
2018-10-06T09:51:19.978Z,4.23
2018-10-06T09:56:23.616Z,4.03
2018-10-06T10:01:32.511Z,5.47
2018-10-06T10:06:36.320Z,5.83
2018-10-06T10:11:40.139Z,5.73
2018-10-06T10:16:43.706Z,4.50
2018-10-06T10:21:47.484Z,5.63
2018-10-06T10:26:51.144Z,4.70
2018-10-06T10:31:54.877Z,3.07
2018-10-06T10:36:58.576Z,5.60
2018-10-06T10:42:02.241Z,5.93
2018-10-06T10:47:06.086Z,4.90
2018-10-06T10:52:09.841Z,6.63
2018-10-06T10:57:13.394Z,3.90
2018-10-06T11:02:16.942Z,5.13
2018-10-06T11:07:20.520Z,4.43
2018-10-06T11:12:24.227Z,3.97
2018-10-06T11:17:27.881Z,6.80
2018-10-06T11:22:31.456Z,5.30
2018-10-06T11:27:35.100Z,3.70
2018-10-06T11:32:38.929Z,17.20
2018-10-06T11:37:42.631Z,4.37
2018-10-06T11:42:46.208Z,3.30
2018-10-06T11:47:49.832Z,3.27
2018-10-06T11:52:53.492Z,4.03
2018-10-06T11:57:57.103Z,2.80
2018-10-06T12:03:00.801Z,3.53
2018-10-06T12:08:04.563Z,3.40
2018-10-06T12:13:08.162Z,3.47
2018-10-06T12:18:11.798Z,4.97
2018-10-06T12:23:15.510Z,4.87
2018-10-06T12:28:19.064Z,2.50
2018-10-06T12:33:23.270Z,4.53
2018-10-06T12:38:26.784Z,3.50
2018-10-06T12:43:30.317Z,2.20
2018-10-06T12:48:34.134Z,3.43
2018-10-06T12:53:37.989Z,3.47
2018-10-06T12:58:41.616Z,2.53
2018-10-06T13:03:45.368Z,2.67
2018-10-06T13:08:49.260Z,2.50
2018-10-06T13:13:53.066Z,3.73
2018-10-06T13:18:56.696Z,3.03
2018-10-06T13:24:00.226Z,11.67
2018-10-06T13:29:03.883Z,5.57
2018-10-06T13:34:07.821Z,2.57
2018-10-06T13:39:11.880Z,3.20
2018-10-06T13:44:15.437Z,4.13
2018-10-06T13:49:18.987Z,2.50
2018-10-06T13:54:22.707Z,2.77
2018-10-06T13:59:26.278Z,2.87
2018-10-06T14:04:29.852Z,4.17
2018-10-06T14:09:33.521Z,3.50
2018-10-06T14:14:37.155Z,3.13
2018-10-06T14:19:40.729Z,8.77
2018-10-06T14:24:44.411Z,3.37
2018-10-06T14:29:48.007Z,2.67
2018-10-06T14:34:51.762Z,2.83
2018-10-06T14:39:55.305Z,2.67
2018-10-06T14:44:59.012Z,2.93
2018-10-06T14:50:02.888Z,2.97
2018-10-06T14:55:08.019Z,3.40
2018-10-06T15:00:13.350Z,2.40
2018-10-06T15:05:17.147Z,3.00
2018-10-06T15:10:20.716Z,4.10
2018-10-06T15:15:24.418Z,2.57
2018-10-06T15:20:28.011Z,2.40
2018-10-06T15:25:31.665Z,6.73
2018-10-06T15:30:35.366Z,3.13
2018-10-06T15:35:38.952Z,4.10
2018-10-06T15:40:42.775Z,6.27
2018-10-06T15:45:46.507Z,6.23
2018-10-06T15:50:50.144Z,3.93
2018-10-06T15:55:53.801Z,3.37
2018-10-06T16:00:57.632Z,3.13
2018-10-06T16:06:13.247Z,3.40
2018-10-06T16:11:16.909Z,3.17
2018-10-06T16:27:16.198Z,6.33
2018-10-06T16:32:20.232Z,3.33
2018-10-06T16:37:24.711Z,5.57
2018-10-06T16:42:28.507Z,3.63
2018-10-06T16:47:32.204Z,2.97
2018-10-06T16:52:36.152Z,6.40
2018-10-06T16:57:39.807Z,3.25
2018-10-06T17:02:43.509Z,8.80
2018-10-06T17:07:47.402Z,8.80
2018-10-06T17:12:50.909Z,3.60
2018-10-06T17:17:54.402Z,5.40
2018-10-06T17:22:58.157Z,6.03
2018-10-06T17:28:01.655Z,10.67
2018-10-06T17:33:05.469Z,6.40
2018-10-06T17:38:08.978Z,7.13
2018-10-06T17:43:12.812Z,8.77
2018-10-06T17:48:16.565Z,7.73
2018-10-06T17:53:20.094Z,4.93
2018-10-06T17:58:23.734Z,6.27
2018-10-06T18:03:28.228Z,6.03
2018-10-06T18:08:31.770Z,7.70
2018-10-06T18:13:35.354Z,10.77
2018-10-06T18:18:38.932Z,6.27
2018-10-06T18:23:42.466Z,6.83
2018-10-06T18:28:46.871Z,7.20
2018-10-06T18:33:52.226Z,6.23
2018-10-06T18:38:55.822Z,4.97
2018-10-06T18:43:59.325Z,5.40
2018-10-06T18:49:03.831Z,8.80
2018-10-06T18:54:07.320Z,8.70
2018-10-06T18:59:10.844Z,13.97
2018-10-06T19:04:14.567Z,6.87
2018-10-06T19:09:18.114Z,6.10
2018-10-06T19:14:21.714Z,6.80
2018-10-06T19:19:25.516Z,9.00
2018-10-06T19:24:29.098Z,6.63
2018-10-06T19:29:32.720Z,7.90
2018-10-06T19:34:36.287Z,8.07
2018-10-06T19:39:39.835Z,6.47
2018-10-06T19:44:43.654Z,9.10
2018-10-06T19:49:47.158Z,9.20
2018-10-06T19:54:50.740Z,8.50
2018-10-06T19:59:54.267Z,12.97
2018-10-06T20:04:57.932Z,15.63
2018-10-06T20:10:02.085Z,14.50
2018-10-06T20:15:05.866Z,13.97
2018-10-06T20:20:09.684Z,10.73
2018-10-06T20:25:13.388Z,10.53
2018-10-06T20:30:26.049Z,13.97
2018-10-06T20:35:29.724Z,12.20
2018-10-06T20:40:33.293Z,14.97
2018-10-06T20:45:36.891Z,12.73
2018-10-06T20:50:40.487Z,12.27
2018-10-06T20:55:44.089Z,14.77
2018-10-06T21:00:47.768Z,14.93
2018-10-06T21:05:51.339Z,13.77
2018-10-06T21:10:57.751Z,14.50
2018-10-06T21:16:01.268Z,15.70
2018-10-06T21:21:04.906Z,14.13
2018-10-06T21:26:08.897Z,15.83
2018-10-06T21:31:12.458Z,13.77
2018-10-06T21:36:16.010Z,17.50
2018-10-06T21:41:19.616Z,16.43
2018-10-06T21:46:23.211Z,17.23
2018-10-06T21:51:26.822Z,18.97
2018-10-06T21:56:30.365Z,15.53
2018-10-06T22:01:35.340Z,15.23
2018-10-06T22:06:39.000Z,16.93
2018-10-06T22:11:42.664Z,14.03
2018-10-06T22:16:46.240Z,16.30
2018-10-06T22:21:49.924Z,16.53
2018-10-06T22:26:53.628Z,17.53
2018-10-06T22:31:57.235Z,15.50
2018-10-06T22:37:00.914Z,14.90
2018-10-06T22:42:04.462Z,23.70
2018-10-06T22:47:09.780Z,25.73
2018-10-06T22:52:13.470Z,30.00
2018-10-06T22:57:17.042Z,28.77
2018-10-06T23:02:20.611Z,33.53
2018-10-06T23:07:24.228Z,33.90
2018-10-06T23:12:27.940Z,39.77
2018-10-06T23:17:31.514Z,37.40
2018-10-06T23:22:35.059Z,47.70
2018-10-06T23:27:38.758Z,51.83
2018-10-06T23:32:42.423Z,53.90
2018-10-06T23:37:46.072Z,54.13
2018-10-06T23:42:49.839Z,54.10
2018-10-06T23:47:53.463Z,61.77
2018-10-06T23:52:57.220Z,50.93
2018-10-06T23:58:00.844Z,53.87
